sensor_id;sensor_type;location;lat;lon;timestamp;pressure;altitude;pressure_sealevel;temperature;humidity
13732;BME280;6937;56.096;12.664;2022-07-18T00:00:21;104654.69;;;17.41;100.00
13732;BME280;6937;56.096;12.664;2022-07-18T00:02:47;104704.44;;;17.37;100.00
13732;BME280;6937;56.096;12.664;2022-07-18T00:05:12;104769.41;;;17.35;100.00
13732;BME280;6937;56.096;12.664;2022-07-18T00:07:37;104827.06;;;17.36;100.00
13732;BME280;6937;56.096;12.664;2022-07-18T00:10:04;104887.38;;;17.39;100.00
13732;BME280;6937;56.096;12.664;2022-07-18T00:12:29;104936.16;;;17.36;100.00
13732;BME280;6937;56.096;12.664;2022-07-18T00:14:54;105003.84;;;17.35;100.00
13732;BME280;6937;56.096;12.664;2022-07-18T00:17:20;105059.78;;;17.34;100.00
13732;BME280;6937;56.096;12.664;2022-07-18T00:19:45;105116.63;;;17.33;100.00
13732;BME280;6937;56.096;12.664;2022-07-18T00:22:11;105161.69;;;17.34;100.00
13732;BME280;6937;56.096;12.664;2022-07-18T00:24:36;105217.56;;;17.35;100.00
13732;BME280;6937;56.096;12.664;2022-07-18T00:27:03;105287.81;;;17.38;100.00
13732;BME280;6937;56.096;12.664;2022-07-18T00:29:29;105342.94;;;17.32;100.00
13732;BME280;6937;56.096;12.664;2022-07-18T00:31:55;105414.16;;;17.34;100.00
13732;BME280;6937;56.096;12.664;2022-07-18T00:34:20;105497.19;;;17.31;100.00
13732;BME280;6937;56.096;12.664;2022-07-18T00:36:46;105545.91;;;17.29;100.00
13732;BME280;6937;56.096;12.664;2022-07-18T00:39:11;105592.81;;;17.28;100.00
13732;BME280;6937;56.096;12.664;2022-07-18T00:41:37;105685.78;;;17.26;100.00
13732;BME280;6937;56.096;12.664;2022-07-18T00:44:02;105737.38;;;17.17;100.00
13732;BME280;6937;56.096;12.664;2022-07-18T00:46:30;105796.78;;;17.21;100.00
13732;BME280;6937;56.096;12.664;2022-07-18T00:48:55;105847.47;;;17.10;100.00
13732;BME280;6937;56.096;12.664;2022-07-18T00:51:21;105915.00;;;17.16;100.00
13732;BME280;6937;56.096;12.664;2022-07-18T00:53:48;105983.63;;;17.11;100.00
13732;BME280;6937;56.096;12.664;2022-07-18T00:56:17;106077.38;;;17.12;100.00
13732;BME280;6937;56.096;12.664;2022-07-18T00:58:43;106185.56;;;17.12;100.00
13732;BME280;6937;56.096;12.664;2022-07-18T01:01:08;106269.53;;;17.03;100.00
13732;BME280;6937;56.096;12.664;2022-07-18T01:03:52;106382.16;;;17.08;100.00
13732;BME280;6937;56.096;12.664;2022-07-18T01:06:18;106480.41;;;17.10;100.00
13732;BME280;6937;56.096;12.664;2022-07-18T01:08:43;106574.19;;;17.10;100.00
13732;BME280;6937;56.096;12.664;2022-07-18T01:11:09;106673.41;;;17.06;100.00
13732;BME280;6937;56.096;12.664;2022-07-18T01:13:36;106783.41;;;17.09;100.00
13732;BME280;6937;56.096;12.664;2022-07-18T01:16:02;106905.16;;;17.07;100.00
13732;BME280;6937;56.096;12.664;2022-07-18T01:18:27;107022.38;;;17.05;100.00
13732;BME280;6937;56.096;12.664;2022-07-18T01:20:53;107126.06;;;17.02;100.00
13732;BME280;6937;56.096;12.664;2022-07-18T01:23:18;107249.63;;;17.02;100.00
13732;BME280;6937;56.096;12.664;2022-07-18T01:25:44;107375.84;;;17.03;100.00
13732;BME280;6937;56.096;12.664;2022-07-18T01:28:09;107493.13;;;17.05;100.00
13732;BME280;6937;56.096;12.664;2022-07-18T01:30:35;107626.56;;;17.01;100.00
13732;BME280;6937;56.096;12.664;2022-07-18T01:33:02;107785.31;;;17.02;100.00
13732;BME280;6937;56.096;12.664;2022-07-18T01:35:29;107929.63;;;17.04;100.00
13732;BME280;6937;56.096;12.664;2022-07-18T01:37:57;108102.84;;;17.07;100.00
13732;BME280;6937;56.096;12.664;2022-07-18T01:40:23;108244.50;;;17.07;100.00
13732;BME280;6937;56.096;12.664;2022-07-18T01:42:48;108396.97;;;17.08;100.00
13732;BME280;6937;56.096;12.664;2022-07-18T01:45:14;108525.03;;;17.07;100.00
13732;BME280;6937;56.096;12.664;2022-07-18T01:47:41;108647.75;;;17.06;100.00
13732;BME280;6937;56.096;12.664;2022-07-18T01:50:08;108806.53;;;17.07;100.00
13732;BME280;6937;56.096;12.664;2022-07-18T01:52:33;108978.03;;;17.09;100.00
13732;BME280;6937;56.096;12.664;2022-07-18T01:54:59;109115.09;;;17.07;100.00
13732;BME280;6937;56.096;12.664;2022-07-18T01:57:24;109259.31;;;17.01;100.00
13732;BME280;6937;56.096;12.664;2022-07-18T01:59:50;109427.13;;;17.01;100.00
13732;BME280;6937;56.096;12.664;2022-07-18T02:02:15;109605.84;;;17.03;100.00
13732;BME280;6937;56.096;12.664;2022-07-18T02:04:41;109762.00;;;17.04;100.00
13732;BME280;6937;56.096;12.664;2022-07-18T02:07:32;109936.13;;;17.03;100.00
13732;BME280;6937;56.096;12.664;2022-07-18T02:09:59;110150.00;;;17.03;100.00
13732;BME280;6937;56.096;12.664;2022-07-18T02:12:24;110282.69;;;17.03;100.00
13732;BME280;6937;56.096;12.664;2022-07-18T02:14:50;110486.44;;;16.99;100.00
13732;BME280;6937;56.096;12.664;2022-07-18T02:17:16;110760.84;;;16.99;100.00
13732;BME280;6937;56.096;12.664;2022-07-18T02:19:43;110996.75;;;17.04;100.00
13732;BME280;6937;56.096;12.664;2022-07-18T02:22:09;111189.03;;;17.04;100.00
13732;BME280;6937;56.096;12.664;2022-07-18T02:24:34;111404.06;;;17.06;100.00
13732;BME280;6937;56.096;12.664;2022-07-18T02:27:00;111608.88;;;17.04;100.00
13732;BME280;6937;56.096;12.664;2022-07-18T02:29:25;111786.84;;;17.05;100.00
13732;BME280;6937;56.096;12.664;2022-07-18T02:31:51;112007.88;;;17.03;100.00
13732;BME280;6937;56.096;12.664;2022-07-18T02:34:16;112226.28;;;17.01;100.00
13732;BME280;6937;56.096;12.664;2022-07-18T02:36:42;112441.91;;;16.99;100.00
13732;BME280;6937;56.096;12.664;2022-07-18T02:39:09;112649.97;;;17.03;100.00
13732;BME280;6937;56.096;12.664;2022-07-18T02:41:35;112936.41;;;17.04;100.00
13732;BME280;6937;56.096;12.664;2022-07-18T02:44:01;113146.03;;;17.04;100.00
13732;BME280;6937;56.096;12.664;2022-07-18T02:46:27;113383.38;;;17.02;100.00
13732;BME280;6937;56.096;12.664;2022-07-18T02:48:52;113587.44;;;16.92;100.00
13732;BME280;6937;56.096;12.664;2022-07-18T02:51:18;113903.41;;;16.99;100.00
13732;BME280;6937;56.096;12.664;2022-07-18T02:53:43;114070.69;;;17.00;100.00
13732;BME280;6937;56.096;12.664;2022-07-18T02:56:08;114317.53;;;17.02;100.00
13732;BME280;6937;56.096;12.664;2022-07-18T02:58:34;114559.94;;;17.04;100.00
13732;BME280;6937;56.096;12.664;2022-07-18T03:00:59;114758.59;;;17.03;100.00
13732;BME280;6937;56.096;12.664;2022-07-18T03:03:25;114897.47;;;17.00;100.00
13732;BME280;6937;56.096;12.664;2022-07-18T03:05:50;115065.56;;;17.00;100.00
13732;BME280;6937;56.096;12.664;2022-07-18T03:08:16;115235.41;;;17.00;100.00
13732;BME280;6937;56.096;12.664;2022-07-18T03:10:41;115344.63;;;16.99;100.00
13732;BME280;6937;56.096;12.664;2022-07-18T03:13:07;115531.94;;;17.00;100.00
13732;BME280;6937;56.096;12.664;2022-07-18T03:15:32;115677.38;;;17.00;100.00
13732;BME280;6937;56.096;12.664;2022-07-18T03:17:58;115807.78;;;17.01;100.00
13732;BME280;6937;56.096;12.664;2022-07-18T03:20:23;115936.22;;;17.02;100.00
13732;BME280;6937;56.096;12.664;2022-07-18T03:22:48;116113.69;;;17.04;100.00
13732;BME280;6937;56.096;12.664;2022-07-18T03:25:14;116300.94;;;16.98;100.00
13732;BME280;6937;56.096;12.664;2022-07-18T03:27:39;116559.78;;;17.00;100.00
13732;BME280;6937;56.096;12.664;2022-07-18T03:30:05;116745.69;;;17.04;100.00
13732;BME280;6937;56.096;12.664;2022-07-18T03:32:31;116893.44;;;17.00;100.00
13732;BME280;6937;56.096;12.664;2022-07-18T03:34:56;117078.63;;;17.05;100.00
13732;BME280;6937;56.096;12.664;2022-07-18T03:37:21;117191.09;;;16.96;100.00
13732;BME280;6937;56.096;12.664;2022-07-18T03:39:47;117341.03;;;17.00;100.00
13732;BME280;6937;56.096;12.664;2022-07-18T03:42:12;117485.13;;;17.07;100.00
13732;BME280;6937;56.096;12.664;2022-07-18T03:44:38;117581.81;;;17.07;100.00
13732;BME280;6937;56.096;12.664;2022-07-18T03:47:03;117656.56;;;17.05;100.00
13732;BME280;6937;56.096;12.664;2022-07-18T03:49:29;117720.78;;;16.89;100.00
13732;BME280;6937;56.096;12.664;2022-07-18T03:51:54;117806.22;;;17.02;100.00
13732;BME280;6937;56.096;12.664;2022-07-18T03:54:23;117857.44;;;16.89;100.00
13732;BME280;6937;56.096;12.664;2022-07-18T03:56:49;117935.53;;;17.02;100.00
13732;BME280;6937;56.096;12.664;2022-07-18T03:59:15;117974.22;;;17.01;100.00
13732;BME280;6937;56.096;12.664;2022-07-18T04:01:40;117915.53;;;17.01;100.00
13732;BME280;6937;56.096;12.664;2022-07-18T04:04:06;117952.53;;;17.01;100.00
13732;BME280;6937;56.096;12.664;2022-07-18T04:06:31;118026.03;;;17.02;100.00
13732;BME280;6937;56.096;12.664;2022-07-18T04:08:57;118106.72;;;17.03;100.00
13732;BME280;6937;56.096;12.664;2022-07-18T04:11:22;118171.59;;;17.02;100.00
13732;BME280;6937;56.096;12.664;2022-07-18T04:13:53;118154.94;;;16.95;100.00
13732;BME280;6937;56.096;12.664;2022-07-18T04:16:19;118176.94;;;16.96;100.00
13732;BME280;6937;56.096;12.664;2022-07-18T04:18:45;118244.78;;;16.96;100.00
13732;BME280;6937;56.096;12.664;2022-07-18T04:21:10;118239.25;;;16.90;100.00
13732;BME280;6937;56.096;12.664;2022-07-18T04:23:36;118274.25;;;16.89;100.00
13732;BME280;6937;56.096;12.664;2022-07-18T04:26:01;118340.06;;;16.88;100.00
13732;BME280;6937;56.096;12.664;2022-07-18T04:28:29;118405.19;;;16.88;100.00
13732;BME280;6937;56.096;12.664;2022-07-18T04:30:54;118487.75;;;16.84;100.00
13732;BME280;6937;56.096;12.664;2022-07-18T04:33:19;118602.28;;;16.87;100.00
13732;BME280;6937;56.096;12.664;2022-07-18T04:35:45;118673.97;;;16.84;100.00
13732;BME280;6937;56.096;12.664;2022-07-18T04:38:10;118762.66;;;16.89;100.00
13732;BME280;6937;56.096;12.664;2022-07-18T04:40:37;118838.47;;;16.83;100.00
13732;BME280;6937;56.096;12.664;2022-07-18T04:43:03;119005.19;;;16.89;100.00
13732;BME280;6937;56.096;12.664;2022-07-18T04:45:29;119119.09;;;16.80;100.00
13732;BME280;6937;56.096;12.664;2022-07-18T04:47:54;119286.84;;;16.86;100.00
13732;BME280;6937;56.096;12.664;2022-07-18T04:50:20;119371.88;;;16.77;100.00
13732;BME280;6937;56.096;12.664;2022-07-18T04:52:47;119506.97;;;16.88;100.00
13732;BME280;6937;56.096;12.664;2022-07-18T04:55:15;119666.34;;;16.93;100.00
13732;BME280;6937;56.096;12.664;2022-07-18T04:57:42;119837.56;;;16.99;100.00
13732;BME280;6937;56.096;12.664;2022-07-18T05:00:10;119922.75;;;16.99;100.00
13732;BME280;6937;56.096;12.664;2022-07-18T05:02:44;120007.25;;;17.01;100.00
13732;BME280;6937;56.096;12.664;2022-07-18T05:05:12;120064.28;;;17.01;100.00
13732;BME280;6937;56.096;12.664;2022-07-18T05:07:39;120203.38;;;17.04;100.00
13732;BME280;6937;56.096;12.664;2022-07-18T05:10:06;120375.00;;;17.15;100.00
13732;BME280;6937;56.096;12.664;2022-07-18T05:12:36;120535.94;;;17.14;100.00
13732;BME280;6937;56.096;12.664;2022-07-18T05:15:05;120679.13;;;17.31;100.00
13732;BME280;6937;56.096;12.664;2022-07-18T05:17:31;120767.38;;;17.37;100.00
13732;BME280;6937;56.096;12.664;2022-07-18T05:19:57;120850.56;;;17.45;100.00
13732;BME280;6937;56.096;12.664;2022-07-18T05:22:22;120854.28;;;17.49;100.00
13732;BME280;6937;56.096;12.664;2022-07-18T05:24:49;120694.38;;;17.38;100.00
13732;BME280;6937;56.096;12.664;2022-07-18T05:27:15;120579.84;;;17.45;100.00
13732;BME280;6937;56.096;12.664;2022-07-18T05:29:40;120430.00;;;17.48;100.00
13732;BME280;6937;56.096;12.664;2022-07-18T05:32:06;120307.03;;;17.49;100.00
13732;BME280;6937;56.096;12.664;2022-07-18T05:34:32;120201.06;;;17.49;100.00
13732;BME280;6937;56.096;12.664;2022-07-18T05:36:58;120071.31;;;17.48;100.00
13732;BME280;6937;56.096;12.664;2022-07-18T05:39:23;119942.44;;;17.55;100.00
13732;BME280;6937;56.096;12.664;2022-07-18T05:41:49;119790.28;;;17.55;100.00
13732;BME280;6937;56.096;12.664;2022-07-18T05:44:14;119661.88;;;17.56;100.00
13732;BME280;6937;56.096;12.664;2022-07-18T05:46:39;119483.22;;;17.55;100.00
13732;BME280;6937;56.096;12.664;2022-07-18T05:49:05;119324.94;;;17.56;100.00
13732;BME280;6937;56.096;12.664;2022-07-18T05:51:30;119220.59;;;17.60;100.00
13732;BME280;6937;56.096;12.664;2022-07-18T05:53:56;119055.19;;;17.61;100.00
13732;BME280;6937;56.096;12.664;2022-07-18T05:56:21;118867.09;;;17.49;100.00
13732;BME280;6937;56.096;12.664;2022-07-18T05:58:46;118723.56;;;17.65;100.00
13732;BME280;6937;56.096;12.664;2022-07-18T06:01:12;118565.16;;;17.61;100.00
13732;BME280;6937;56.096;12.664;2022-07-18T06:03:42;118435.75;;;17.76;100.00
13732;BME280;6937;56.096;12.664;2022-07-18T06:06:07;118252.53;;;17.80;100.00
13732;BME280;6937;56.096;12.664;2022-07-18T06:08:33;118050.50;;;17.85;100.00
13732;BME280;6937;56.096;12.664;2022-07-18T06:10:58;117818.59;;;17.84;100.00
13732;BME280;6937;56.096;12.664;2022-07-18T06:13:24;117670.66;;;17.88;100.00
13732;BME280;6937;56.096;12.664;2022-07-18T06:15:49;117514.53;;;17.92;100.00
13732;BME280;6937;56.096;12.664;2022-07-18T06:18:14;117284.06;;;17.89;100.00
13732;BME280;6937;56.096;12.664;2022-07-18T06:20:40;117070.22;;;17.88;100.00
13732;BME280;6937;56.096;12.664;2022-07-18T06:23:05;116811.19;;;17.82;100.00
13732;BME280;6937;56.096;12.664;2022-07-18T06:25:31;116644.53;;;17.81;100.00
13732;BME280;6937;56.096;12.664;2022-07-18T06:27:56;116452.69;;;17.82;100.00
13732;BME280;6937;56.096;12.664;2022-07-18T06:30:21;116291.69;;;17.83;100.00
13732;BME280;6937;56.096;12.664;2022-07-18T06:32:48;116130.50;;;17.82;100.00
13732;BME280;6937;56.096;12.664;2022-07-18T06:35:13;115942.63;;;17.72;100.00
13732;BME280;6937;56.096;12.664;2022-07-18T06:37:39;115809.66;;;17.79;100.00
13732;BME280;6937;56.096;12.664;2022-07-18T06:40:05;115651.94;;;17.78;100.00
13732;BME280;6937;56.096;12.664;2022-07-18T06:42:30;115537.16;;;17.79;100.00
13732;BME280;6937;56.096;12.664;2022-07-18T06:44:55;115385.69;;;17.76;100.00
13732;BME280;6937;56.096;12.664;2022-07-18T06:47:21;115268.53;;;17.73;100.00
13732;BME280;6937;56.096;12.664;2022-07-18T06:49:46;115130.09;;;17.73;100.00
13732;BME280;6937;56.096;12.664;2022-07-18T06:52:11;115044.22;;;17.74;100.00
13732;BME280;6937;56.096;12.664;2022-07-18T06:54:39;115003.91;;;17.77;100.00
13732;BME280;6937;56.096;12.664;2022-07-18T06:57:08;114907.97;;;17.69;100.00
13732;BME280;6937;56.096;12.664;2022-07-18T06:59:35;114764.22;;;17.78;100.00
13732;BME280;6937;56.096;12.664;2022-07-18T07:02:01;114696.72;;;17.81;100.00
13732;BME280;6937;56.096;12.664;2022-07-18T07:04:26;114609.28;;;17.83;100.00
13732;BME280;6937;56.096;12.664;2022-07-18T07:06:51;114457.06;;;17.82;100.00
13732;BME280;6937;56.096;12.664;2022-07-18T07:09:17;114318.50;;;17.80;100.00
13732;BME280;6937;56.096;12.664;2022-07-18T07:11:42;114180.00;;;17.72;100.00
13732;BME280;6937;56.096;12.664;2022-07-18T07:14:08;114034.13;;;17.78;100.00
13732;BME280;6937;56.096;12.664;2022-07-18T07:16:33;113841.78;;;17.72;100.00
13732;BME280;6937;56.096;12.664;2022-07-18T07:18:59;113744.25;;;17.74;100.00
13732;BME280;6937;56.096;12.664;2022-07-18T07:21:24;113630.44;;;17.75;100.00
13732;BME280;6937;56.096;12.664;2022-07-18T07:23:49;113507.22;;;17.73;100.00
13732;BME280;6937;56.096;12.664;2022-07-18T07:26:15;113405.56;;;17.70;100.00
13732;BME280;6937;56.096;12.664;2022-07-18T07:28:40;113308.22;;;17.73;100.00
13732;BME280;6937;56.096;12.664;2022-07-18T07:31:06;113269.56;;;17.75;100.00
13732;BME280;6937;56.096;12.664;2022-07-18T07:33:31;113218.03;;;17.75;100.00
13732;BME280;6937;56.096;12.664;2022-07-18T07:35:56;113183.19;;;17.80;100.00
13732;BME280;6937;56.096;12.664;2022-07-18T07:38:22;113108.19;;;17.80;100.00
13732;BME280;6937;56.096;12.664;2022-07-18T07:40:53;113018.50;;;17.79;100.00
13732;BME280;6937;56.096;12.664;2022-07-18T07:43:18;112926.94;;;17.76;100.00
13732;BME280;6937;56.096;12.664;2022-07-18T07:45:46;112799.03;;;17.72;100.00
13732;BME280;6937;56.096;12.664;2022-07-18T07:48:13;112770.41;;;17.75;100.00
13732;BME280;6937;56.096;12.664;2022-07-18T07:50:39;112666.09;;;17.72;100.00
13732;BME280;6937;56.096;12.664;2022-07-18T07:53:05;112594.47;;;17.70;100.00
13732;BME280;6937;56.096;12.664;2022-07-18T07:55:30;112562.47;;;17.76;100.00
13732;BME280;6937;56.096;12.664;2022-07-18T07:57:56;112476.34;;;17.73;100.00
13732;BME280;6937;56.096;12.664;2022-07-18T08:00:21;112390.50;;;17.74;100.00
13732;BME280;6937;56.096;12.664;2022-07-18T08:02:58;112291.09;;;17.74;100.00
13732;BME280;6937;56.096;12.664;2022-07-18T08:05:25;112182.34;;;17.71;100.00
13732;BME280;6937;56.096;12.664;2022-07-18T08:07:51;112069.19;;;17.69;100.00
13732;BME280;6937;56.096;12.664;2022-07-18T08:10:18;112049.59;;;17.73;100.00
13732;BME280;6937;56.096;12.664;2022-07-18T08:12:44;112031.66;;;17.75;100.00
13732;BME280;6937;56.096;12.664;2022-07-18T08:15:09;111958.31;;;17.73;100.00
13732;BME280;6937;56.096;12.664;2022-07-18T08:17:35;111907.84;;;17.75;100.00
13732;BME280;6937;56.096;12.664;2022-07-18T08:20:00;111969.38;;;17.88;100.00
13732;BME280;6937;56.096;12.664;2022-07-18T08:22:26;112077.25;;;18.04;100.00
13732;BME280;6937;56.096;12.664;2022-07-18T08:24:51;112381.06;;;18.47;100.00
13732;BME280;6937;56.096;12.664;2022-07-18T08:27:17;112330.78;;;18.75;100.00
13732;BME280;6937;56.096;12.664;2022-07-18T08:29:42;112124.19;;;18.99;100.00
13732;BME280;6937;56.096;12.664;2022-07-18T08:32:08;111768.47;;;19.16;100.00
13732;BME280;6937;56.096;12.664;2022-07-18T08:34:34;111375.88;;;19.26;100.00
13732;BME280;6937;56.096;12.664;2022-07-18T08:36:59;110770.81;;;18.93;100.00
13732;BME280;6937;56.096;12.664;2022-07-18T08:39:24;110316.13;;;18.68;100.00
13732;BME280;6937;56.096;12.664;2022-07-18T08:41:50;110067.47;;;18.51;100.00
13732;BME280;6937;56.096;12.664;2022-07-18T08:44:17;110020.72;;;18.58;100.00
13732;BME280;6937;56.096;12.664;2022-07-18T08:46:50;110002.78;;;18.63;100.00
13732;BME280;6937;56.096;12.664;2022-07-18T08:49:16;109879.38;;;18.54;100.00
13732;BME280;6937;56.096;12.664;2022-07-18T08:51:42;109836.78;;;18.51;100.00
13732;BME280;6937;56.096;12.664;2022-07-18T08:54:08;109813.50;;;18.58;100.00
13732;BME280;6937;56.096;12.664;2022-07-18T08:56:34;109681.69;;;18.41;100.00
13732;BME280;6937;56.096;12.664;2022-07-18T08:59:00;109580.25;;;18.37;100.00
13732;BME280;6937;56.096;12.664;2022-07-18T09:01:31;109496.72;;;18.27;100.00
13732;BME280;6937;56.096;12.664;2022-07-18T09:03:56;109475.09;;;18.28;100.00
13732;BME280;6937;56.096;12.664;2022-07-18T09:06:50;109488.59;;;18.27;100.00
13732;BME280;6937;56.096;12.664;2022-07-18T09:09:17;109458.75;;;18.27;100.00
13732;BME280;6937;56.096;12.664;2022-07-18T09:14:39;109406.28;;;18.26;100.00
13732;BME280;6937;56.096;12.664;2022-07-18T09:17:11;109442.63;;;18.31;100.00
13732;BME280;6937;56.096;12.664;2022-07-18T09:19:39;109519.66;;;18.37;100.00
13732;BME280;6937;56.096;12.664;2022-07-18T09:22:32;109666.22;;;18.63;100.00
13732;BME280;6937;56.096;12.664;2022-07-18T09:33:08;109517.41;;;18.77;100.00
13732;BME280;6937;56.096;12.664;2022-07-18T09:35:50;109510.31;;;18.82;100.00
13732;BME280;6937;56.096;12.664;2022-07-18T09:38:28;109431.38;;;18.74;100.00
13732;BME280;6937;56.096;12.664;2022-07-18T09:40:54;109406.25;;;18.81;100.00
13732;BME280;6937;56.096;12.664;2022-07-18T09:43:24;109327.34;;;18.75;100.00
13732;BME280;6937;56.096;12.664;2022-07-18T09:45:53;109265.66;;;18.70;100.00
13732;BME280;6937;56.096;12.664;2022-07-18T09:48:21;109253.03;;;18.70;100.00
13732;BME280;6937;56.096;12.664;2022-07-18T09:50:57;109240.25;;;18.66;100.00
13732;BME280;6937;56.096;12.664;2022-07-18T09:53:33;109216.75;;;18.67;100.00
13732;BME280;6937;56.096;12.664;2022-07-18T09:56:02;109190.47;;;18.67;100.00
13732;BME280;6937;56.096;12.664;2022-07-18T09:58:31;109110.91;;;18.68;100.00
13732;BME280;6937;56.096;12.664;2022-07-18T10:00:58;108996.94;;;18.68;100.00
13732;BME280;6937;56.096;12.664;2022-07-18T10:03:25;108876.69;;;18.72;100.00
13732;BME280;6937;56.096;12.664;2022-07-18T10:05:53;108735.47;;;18.68;100.00
13732;BME280;6937;56.096;12.664;2022-07-18T10:08:24;108585.41;;;18.72;100.00
13732;BME280;6937;56.096;12.664;2022-07-18T10:10:51;108490.53;;;18.78;100.00
13732;BME280;6937;56.096;12.664;2022-07-18T10:13:18;108399.22;;;18.83;100.00
13732;BME280;6937;56.096;12.664;2022-07-18T10:15:46;108264.44;;;18.83;100.00
13732;BME280;6937;56.096;12.664;2022-07-18T10:18:17;108118.78;;;18.82;100.00
13732;BME280;6937;56.096;12.664;2022-07-18T10:20:58;107986.72;;;18.81;100.00
13732;BME280;6937;56.096;12.664;2022-07-18T10:28:31;107598.72;;;18.89;100.00
13732;BME280;6937;56.096;12.664;2022-07-18T10:31:12;107431.34;;;18.88;100.00
13732;BME280;6937;56.096;12.664;2022-07-18T10:33:43;107229.66;;;18.92;100.00
13732;BME280;6937;56.096;12.664;2022-07-18T10:36:21;106999.91;;;18.91;100.00
13732;BME280;6937;56.096;12.664;2022-07-18T10:39:15;106734.00;;;18.91;100.00
13732;BME280;6937;56.096;12.664;2022-07-18T11:15:54;105550.66;;;19.11;100.00
13732;BME280;6937;56.096;12.664;2022-07-18T11:18:21;105543.44;;;19.11;100.00
13732;BME280;6937;56.096;12.664;2022-07-18T11:20:47;105517.59;;;19.00;100.00
13732;BME280;6937;56.096;12.664;2022-07-18T11:23:21;105525.16;;;19.16;100.00
13732;BME280;6937;56.096;12.664;2022-07-18T11:25:49;105496.44;;;19.09;100.00
13732;BME280;6937;56.096;12.664;2022-07-18T11:28:16;105485.59;;;19.09;100.00
13732;BME280;6937;56.096;12.664;2022-07-18T11:30:42;105473.94;;;19.07;100.00
13732;BME280;6937;56.096;12.664;2022-07-18T11:33:26;105522.53;;;19.13;100.00
13732;BME280;6937;56.096;12.664;2022-07-18T11:36:02;105552.53;;;19.09;100.00
13732;BME280;6937;56.096;12.664;2022-07-18T11:38:28;105602.09;;;19.15;100.00
13732;BME280;6937;56.096;12.664;2022-07-18T11:40:53;105650.03;;;19.15;100.00
13732;BME280;6937;56.096;12.664;2022-07-18T11:43:20;105681.69;;;19.14;100.00
13732;BME280;6937;56.096;12.664;2022-07-18T11:45:45;105691.75;;;19.11;100.00
13732;BME280;6937;56.096;12.664;2022-07-18T11:48:10;105701.47;;;19.18;100.00
13732;BME280;6937;56.096;12.664;2022-07-18T11:50:37;105779.72;;;19.33;100.00
13732;BME280;6937;56.096;12.664;2022-07-18T11:53:03;105859.13;;;19.40;100.00
13732;BME280;6937;56.096;12.664;2022-07-18T11:55:34;105898.47;;;19.57;100.00
13732;BME280;6937;56.096;12.664;2022-07-18T11:58:10;105868.22;;;19.69;100.00
13732;BME280;6937;56.096;12.664;2022-07-18T12:00:36;105901.91;;;19.93;100.00
13732;BME280;6937;56.096;12.664;2022-07-18T12:03:17;105830.94;;;20.04;100.00
13732;BME280;6937;56.096;12.664;2022-07-18T12:05:48;105786.19;;;20.14;100.00
13732;BME280;6937;56.096;12.664;2022-07-18T12:08:28;105781.19;;;20.30;100.00
13732;BME280;6937;56.096;12.664;2022-07-18T12:11:29;105738.34;;;20.36;100.00
13732;BME280;6937;56.096;12.664;2022-07-18T12:16:35;105522.66;;;20.37;100.00
13732;BME280;6937;56.096;12.664;2022-07-18T12:19:06;105338.38;;;20.22;100.00
13732;BME280;6937;56.096;12.664;2022-07-18T12:32:58;104822.75;;;20.08;100.00
13732;BME280;6937;56.096;12.664;2022-07-18T12:35:34;104770.41;;;20.05;100.00
13732;BME280;6937;56.096;12.664;2022-07-18T12:43:09;104784.13;;;20.39;100.00
13732;BME280;6937;56.096;12.664;2022-07-18T12:45:37;104708.06;;;20.38;100.00
13732;BME280;6937;56.096;12.664;2022-07-18T12:48:04;104649.88;;;20.42;100.00
13732;BME280;6937;56.096;12.664;2022-07-18T12:50:30;104650.44;;;20.48;100.00
13732;BME280;6937;56.096;12.664;2022-07-18T12:52:56;104564.03;;;20.38;100.00
13732;BME280;6937;56.096;12.664;2022-07-18T12:55:22;104517.38;;;20.30;100.00
13732;BME280;6937;56.096;12.664;2022-07-18T12:57:49;104462.34;;;20.24;100.00
13732;BME280;6937;56.096;12.664;2022-07-18T13:00:14;104379.53;;;20.16;100.00
13732;BME280;6937;56.096;12.664;2022-07-18T13:02:42;104331.75;;;20.12;100.00
13732;BME280;6937;56.096;12.664;2022-07-18T13:05:08;104301.97;;;20.10;100.00
13732;BME280;6937;56.096;12.664;2022-07-18T13:07:34;104272.06;;;20.10;100.00
13732;BME280;6937;56.096;12.664;2022-07-18T13:09:59;104255.09;;;20.07;100.00
13732;BME280;6937;56.096;12.664;2022-07-18T13:12:25;104219.19;;;20.02;100.00
13732;BME280;6937;56.096;12.664;2022-07-18T13:14:50;104178.72;;;19.97;100.00
13732;BME280;6937;56.096;12.664;2022-07-18T13:17:15;104180.47;;;19.98;100.00
13732;BME280;6937;56.096;12.664;2022-07-18T13:19:41;104191.84;;;20.05;100.00
13732;BME280;6937;56.096;12.664;2022-07-18T13:22:06;104183.69;;;20.05;100.00
13732;BME280;6937;56.096;12.664;2022-07-18T13:24:32;104157.56;;;20.02;100.00
13732;BME280;6937;56.096;12.664;2022-07-18T13:26:57;104117.00;;;19.99;100.00
13732;BME280;6937;56.096;12.664;2022-07-18T13:29:22;104077.28;;;19.98;100.00
13732;BME280;6937;56.096;12.664;2022-07-18T13:31:49;104037.56;;;19.96;100.00
13732;BME280;6937;56.096;12.664;2022-07-18T13:34:16;104040.91;;;20.01;100.00
13732;BME280;6937;56.096;12.664;2022-07-18T13:36:41;104003.22;;;19.95;100.00
13732;BME280;6937;56.096;12.664;2022-07-18T13:39:07;103993.78;;;20.02;100.00
13732;BME280;6937;56.096;12.664;2022-07-18T13:41:32;103995.13;;;20.09;100.00
13732;BME280;6937;56.096;12.664;2022-07-18T13:43:58;103976.88;;;20.11;100.00
13732;BME280;6937;56.096;12.664;2022-07-18T13:46:23;103934.03;;;20.02;100.00
13732;BME280;6937;56.096;12.664;2022-07-18T13:48:49;103924.53;;;20.09;100.00